Time;durP1;ratioP1;P1;durP2;ratioP2;P2;SDS_P1;SDS_P2;PMS_P1;PMS_P2;Temp;Humidity;BMP_temperature;BMP_pressure;BME280_temperature;BME280_humidity;BME280_pressure;Samples;Min_cycle;Max_cycle;Signal;HPM_P1;HPM_P2
2021/10/30 00:01:23;;;;;;;;;;;13.00;99.90;;;;;;5059711;28;20222;-75
2021/10/30 00:03:50;;;;;;;;;;;13.10;99.90;;;;;;5051638;28;19913;-77
2021/10/30 00:06:16;;;;;;;;;;;13.10;99.90;;;;;;5067874;28;20287;-77
2021/10/30 00:08:41;;;;;;;;;;;13.00;99.90;;;;;;5074402;28;19912;-76
2021/10/30 00:11:07;;;;;;;;;;;13.10;99.90;;;;;;5048224;28;19958;-76
2021/10/30 00:13:33;;;;;;;;;;;13.20;99.90;;;;;;5047183;28;19920;-77
2021/10/30 00:15:59;;;;;;;;;;;13.10;99.90;;;;;;5059155;28;19957;-76
2021/10/30 00:18:24;;;;;;;;;;;13.20;99.90;;;;;;5063155;28;19920;-76
2021/10/30 00:20:50;;;;;;;;;;;13.20;99.90;;;;;;5048945;28;20029;-77
2021/10/30 00:23:15;;;;;;;;;;;13.30;99.90;;;;;;5065305;28;20003;-76
2021/10/30 00:25:41;;;;;;;;;;;13.30;99.90;;;;;;5061125;28;20311;-76
2021/10/30 00:28:06;;;;;;;;;;;13.30;99.90;;;;;;5065358;28;19908;-77
2021/10/30 00:30:32;;;;;;;;;;;13.40;99.90;;;;;;5072868;28;19924;-77
2021/10/30 00:32:57;;;;;;;;;;;13.40;99.90;;;;;;5065593;28;19908;-77
2021/10/30 00:35:23;;;;;;;;;;;13.40;99.90;;;;;;5066844;28;19951;-77
2021/10/30 00:37:49;;;;;;;;;;;13.40;99.90;;;;;;5065650;28;20280;-75
2021/10/30 00:40:14;;;;;;;;;;;13.50;99.90;;;;;;5066164;28;19912;-77
2021/10/30 00:42:40;;;;;;;;;;;13.50;99.90;;;;;;5052151;28;20269;-76
2021/10/30 00:45:06;;;;;;;;;;;13.50;99.90;;;;;;5085953;28;19913;-76
2021/10/30 00:47:32;;;;;;;;;;;13.40;99.90;;;;;;5063166;28;19974;-74
2021/10/30 00:49:57;;;;;;;;;;;13.40;99.90;;;;;;5064614;28;19959;-76
2021/10/30 00:52:23;;;;;;;;;;;13.40;99.90;;;;;;5064381;28;19916;-77
2021/10/30 00:54:49;;;;;;;;;;;13.40;99.90;;;;;;5048124;28;20335;-76
2021/10/30 00:57:16;;;;;;;;;;;13.40;99.90;;;;;;5081264;28;19991;-77
2021/10/30 00:59:42;;;;;;;;;;;13.40;99.90;;;;;;5065926;28;20006;-76
2021/10/30 01:02:07;;;;;;;;;;;13.40;99.90;;;;;;5047278;28;19999;-76
2021/10/30 01:04:33;;;;;;;;;;;13.20;99.90;;;;;;5066277;28;20369;-77
2021/10/30 01:07:00;;;;;;;;;;;13.20;99.90;;;;;;5067872;28;19909;-74
2021/10/30 01:09:25;;;;;;;;;;;13.10;99.90;;;;;;5066997;28;19913;-76
2021/10/30 01:11:52;;;;;;;;;;;13.00;99.90;;;;;;5080846;28;19912;-77
2021/10/30 01:14:18;;;;;;;;;;;13.00;99.90;;;;;;5064100;28;19913;-77
2021/10/30 01:16:48;;;;;;;;;;;12.90;99.90;;;;;;5066344;28;20362;-76
2021/10/30 01:19:13;;;;;;;;;;;12.90;99.90;;;;;;5062924;28;20281;-78
2021/10/30 01:21:39;;;;;;;;;;;12.90;99.90;;;;;;5065915;28;20173;-76
2021/10/30 01:24:06;;;;;;;;;;;12.80;99.90;;;;;;5046395;28;19955;-77
2021/10/30 01:26:31;;;;;;;;;;;12.70;99.90;;;;;;5065913;28;20343;-77
2021/10/30 01:28:59;;;;;;;;;;;12.50;99.90;;;;;;5064800;28;20257;-76
2021/10/30 01:31:25;;;;;;;;;;;12.20;99.90;;;;;;5071490;28;20023;-77
2021/10/30 01:33:51;;;;;;;;;;;12.00;99.90;;;;;;5070115;28;19991;-77
2021/10/30 01:36:18;;;;;;;;;;;11.80;99.90;;;;;;5047174;28;20364;-77
2021/10/30 01:38:43;;;;;;;;;;;11.70;99.90;;;;;;5070481;28;19942;-77
2021/10/30 01:41:09;;;;;;;;;;;11.60;99.90;;;;;;5067377;28;19913;-77
2021/10/30 01:43:35;;;;;;;;;;;11.80;99.90;;;;;;5073174;28;20425;-75
2021/10/30 01:46:00;;;;;;;;;;;12.00;99.90;;;;;;5083075;28;20204;-76
2021/10/30 01:48:33;;;;;;;;;;;12.10;99.90;;;;;;5081910;28;19924;-77
2021/10/30 01:50:59;;;;;;;;;;;12.00;99.90;;;;;;5093633;28;19920;-74
2021/10/30 01:53:25;;;;;;;;;;;12.10;99.90;;;;;;5087207;28;19916;-77
2021/10/30 01:55:50;;;;;;;;;;;12.20;99.90;;;;;;5083425;28;19908;-77
2021/10/30 01:58:16;;;;;;;;;;;12.10;99.90;;;;;;5056765;28;19913;-77
2021/10/30 02:00:42;;;;;;;;;;;12.10;99.90;;;;;;5104315;28;19919;-77
2021/10/30 02:03:08;;;;;;;;;;;11.90;99.90;;;;;;5092258;28;20102;-77
2021/10/30 02:05:34;;;;;;;;;;;11.80;99.90;;;;;;5090007;28;20338;-77
2021/10/30 02:07:59;;;;;;;;;;;11.80;99.90;;;;;;5086234;28;19913;-76
2021/10/30 02:10:25;;;;;;;;;;;11.90;99.90;;;;;;5084381;28;19912;-76
2021/10/30 02:12:51;;;;;;;;;;;12.20;99.90;;;;;;5071257;28;19915;-77
2021/10/30 02:15:17;;;;;;;;;;;12.20;99.90;;;;;;5088205;28;19965;-77
2021/10/30 02:17:42;;;;;;;;;;;12.40;99.90;;;;;;5083488;28;19916;-77
2021/10/30 02:20:09;;;;;;;;;;;12.30;99.90;;;;;;5060363;28;19919;-77
2021/10/30 02:22:35;;;;;;;;;;;12.30;99.90;;;;;;5087705;28;19908;-77
2021/10/30 02:25:01;;;;;;;;;;;12.30;99.90;;;;;;5103889;27;20371;-76
2021/10/30 02:27:27;;;;;;;;;;;12.50;99.90;;;;;;5091215;28;19915;-77
2021/10/30 02:29:52;;;;;;;;;;;12.60;99.90;;;;;;5087437;28;19942;-77
2021/10/30 02:32:18;;;;;;;;;;;12.50;99.90;;;;;;5089703;28;19912;-77
2021/10/30 02:34:43;;;;;;;;;;;12.50;99.90;;;;;;5074874;28;20206;-77
2021/10/30 02:37:09;;;;;;;;;;;12.50;99.90;;;;;;5085975;28;19915;-77
2021/10/30 02:39:35;;;;;;;;;;;12.50;99.90;;;;;;5089796;28;19913;-76
2021/10/30 02:42:00;;;;;;;;;;;12.40;99.90;;;;;;5091234;28;19908;-78
2021/10/30 02:44:26;;;;;;;;;;;12.30;99.90;;;;;;5091228;28;19912;-78
2021/10/30 02:46:51;;;;;;;;;;;12.20;99.90;;;;;;5093714;28;19924;-75
2021/10/30 02:49:17;;;;;;;;;;;12.20;99.90;;;;;;5106585;28;20026;-77
2021/10/30 02:51:43;;;;;;;;;;;12.20;99.90;;;;;;5105232;27;19908;-77
2021/10/30 02:54:08;;;;;;;;;;;12.20;99.90;;;;;;5096612;28;19942;-77
2021/10/30 02:56:34;;;;;;;;;;;12.10;99.90;;;;;;5080046;28;20347;-76
2021/10/30 02:58:59;;;;;;;;;;;12.20;99.90;;;;;;5084866;28;20284;-77
2021/10/30 03:01:25;;;;;;;;;;;12.10;99.90;;;;;;5076298;28;19908;-77
2021/10/30 03:03:51;;;;;;;;;;;12.10;99.90;;;;;;5087016;28;19912;-77
2021/10/30 03:06:21;;;;;;;;;;;12.00;99.90;;;;;;5096337;28;20192;-77
2021/10/30 03:08:46;;;;;;;;;;;12.00;99.90;;;;;;5090904;28;20196;-77
2021/10/30 03:11:12;;;;;;;;;;;12.00;99.90;;;;;;5091198;28;19982;-77
2021/10/30 03:13:37;;;;;;;;;;;12.10;99.90;;;;;;5070318;28;20376;-77
2021/10/30 03:16:03;;;;;;;;;;;12.00;99.90;;;;;;5074443;28;20722;-77
2021/10/30 03:18:28;;;;;;;;;;;12.10;99.90;;;;;;5090102;28;19919;-77
2021/10/30 03:20:54;;;;;;;;;;;12.10;99.90;;;;;;5087470;28;19958;-77
2021/10/30 03:23:19;;;;;;;;;;;12.20;99.90;;;;;;5075942;28;19913;-76
2021/10/30 03:25:45;;;;;;;;;;;12.20;99.90;;;;;;5083462;28;19987;-76
2021/10/30 03:28:11;;;;;;;;;;;12.30;99.90;;;;;;5091305;28;19918;-77
2021/10/30 03:30:36;;;;;;;;;;;12.20;99.90;;;;;;5090332;28;20321;-76
2021/10/30 03:33:02;;;;;;;;;;;12.20;99.90;;;;;;5071414;28;19931;-77
2021/10/30 03:35:28;;;;;;;;;;;12.20;99.90;;;;;;5081147;28;19909;-77
2021/10/30 03:37:53;;;;;;;;;;;12.20;99.90;;;;;;5089697;28;19918;-76
2021/10/30 03:40:19;;;;;;;;;;;12.10;99.90;;;;;;5105885;28;19954;-77
2021/10/30 03:42:44;;;;;;;;;;;12.10;99.90;;;;;;5090995;28;19937;-77
2021/10/30 03:45:10;;;;;;;;;;;12.20;99.90;;;;;;5066986;28;20045;-77
2021/10/30 03:47:35;;;;;;;;;;;12.20;99.90;;;;;;5086134;28;19923;-77
2021/10/30 03:50:01;;;;;;;;;;;12.20;99.90;;;;;;5089586;28;20010;-74
2021/10/30 03:52:27;;;;;;;;;;;12.40;99.90;;;;;;5089021;28;19916;-76
2021/10/30 03:54:53;;;;;;;;;;;12.40;99.90;;;;;;5088083;28;19915;-77
2021/10/30 03:57:19;;;;;;;;;;;12.30;99.90;;;;;;5070818;28;20001;-77
2021/10/30 03:59:45;;;;;;;;;;;12.30;99.90;;;;;;5078658;28;19915;-76
2021/10/30 04:02:10;;;;;;;;;;;12.20;99.90;;;;;;5094061;28;19909;-77
2021/10/30 04:04:36;;;;;;;;;;;12.20;99.90;;;;;;5087829;28;19908;-77
2021/10/30 04:07:01;;;;;;;;;;;12.10;99.90;;;;;;5107330;27;19916;-76
2021/10/30 04:09:28;;;;;;;;;;;12.20;99.90;;;;;;5089634;28;19955;-75
2021/10/30 04:11:54;;;;;;;;;;;12.20;99.90;;;;;;5071915;28;19915;-77
2021/10/30 04:14:20;;;;;;;;;;;12.20;99.90;;;;;;5092195;28;19908;-77
2021/10/30 04:16:46;;;;;;;;;;;12.20;99.90;;;;;;5090354;28;19908;-77
2021/10/30 04:19:13;;;;;;;;;;;12.30;99.90;;;;;;5089114;28;19908;-77
2021/10/30 04:21:39;;;;;;;;;;;12.40;99.90;;;;;;5085863;28;19908;-77
2021/10/30 04:24:05;;;;;;;;;;;12.50;99.90;;;;;;5068656;28;20034;-77
2021/10/30 04:26:31;;;;;;;;;;;12.70;99.90;;;;;;5081064;28;19912;-76
2021/10/30 04:28:56;;;;;;;;;;;12.80;99.90;;;;;;5093755;28;19913;-76
2021/10/30 04:31:24;;;;;;;;;;;12.90;99.90;;;;;;5087500;28;19935;-77
2021/10/30 04:33:52;;;;;;;;;;;13.00;99.90;;;;;;5089576;28;20003;-76
2021/10/30 04:36:18;;;;;;;;;;;13.00;99.90;;;;;;5081039;28;19909;-76
2021/10/30 04:38:44;;;;;;;;;;;13.10;99.90;;;;;;5089643;28;20412;-77
2021/10/30 04:41:11;;;;;;;;;;;13.10;99.90;;;;;;5088896;28;20451;-77
2021/10/30 04:43:36;;;;;;;;;;;13.20;99.90;;;;;;5089842;28;19912;-76
2021/10/30 04:46:02;;;;;;;;;;;13.30;99.90;;;;;;5104730;28;20008;-75
2021/10/30 04:48:27;;;;;;;;;;;13.40;99.90;;;;;;5088952;28;20035;-77
2021/10/30 04:50:53;;;;;;;;;;;13.40;99.90;;;;;;5089487;28;20456;-76
2021/10/30 04:53:18;;;;;;;;;;;13.40;99.90;;;;;;5089194;28;19908;-76
2021/10/30 04:55:44;;;;;;;;;;;13.50;99.90;;;;;;5070733;28;19955;-78
2021/10/30 04:58:10;;;;;;;;;;;13.50;99.90;;;;;;5084998;28;20544;-77
2021/10/30 05:00:35;;;;;;;;;;;13.50;99.90;;;;;;5079344;28;19909;-78
2021/10/30 05:03:01;;;;;;;;;;;13.50;99.90;;;;;;5084728;28;19908;-76
2021/10/30 05:05:26;;;;;;;;;;;13.50;99.90;;;;;;5088113;28;19939;-76
2021/10/30 05:07:52;;;;;;;;;;;13.50;99.90;;;;;;5071453;28;19938;-77
2021/10/30 05:10:17;;;;;;;;;;;13.40;99.90;;;;;;5088481;28;19923;-77
2021/10/30 05:12:43;;;;;;;;;;;13.50;99.90;;;;;;5071180;28;19909;-78
2021/10/30 05:15:08;;;;;;;;;;;13.40;99.90;;;;;;5071167;28;19993;-78
2021/10/30 05:17:34;;;;;;;;;;;13.40;99.90;;;;;;5088576;28;19920;-78
2021/10/30 05:19:59;;;;;;;;;;;13.30;99.90;;;;;;5069322;28;20568;-76
2021/10/30 05:22:25;;;;;;;;;;;13.30;99.90;;;;;;5080031;28;19916;-77
2021/10/30 05:24:50;;;;;;;;;;;13.30;99.90;;;;;;5105026;28;19947;-78
2021/10/30 05:27:16;;;;;;;;;;;13.40;99.90;;;;;;5078953;28;20417;-79
2021/10/30 05:29:42;;;;;;;;;;;13.40;99.90;;;;;;5089135;28;20382;-76
2021/10/30 05:32:08;;;;;;;;;;;13.40;99.90;;;;;;5087685;28;19930;-77
2021/10/30 05:34:33;;;;;;;;;;;13.40;99.90;;;;;;5081839;28;20348;-77
2021/10/30 05:36:59;;;;;;;;;;;13.40;99.90;;;;;;5085874;28;20007;-76
2021/10/30 05:39:24;;;;;;;;;;;13.40;99.90;;;;;;5078344;28;20015;-76
2021/10/30 05:41:50;;;;;;;;;;;13.30;99.90;;;;;;5084565;28;19912;-76
2021/10/30 05:44:16;;;;;;;;;;;13.10;99.90;;;;;;5066881;28;19962;-77
2021/10/30 05:46:42;;;;;;;;;;;13.10;99.90;;;;;;5105846;28;19985;-78
2021/10/30 05:49:09;;;;;;;;;;;13.10;99.90;;;;;;5081269;28;19994;-79
2021/10/30 05:51:34;;;;;;;;;;;13.10;99.90;;;;;;5070860;28;19938;-80
2021/10/30 05:54:00;;;;;;;;;;;13.00;99.90;;;;;;5087825;28;19916;-77
2021/10/30 05:56:25;;;;;;;;;;;12.90;99.90;;;;;;5082282;28;20321;-78
2021/10/30 05:58:51;;;;;;;;;;;12.80;99.90;;;;;;5092620;28;19907;-78
2021/10/30 06:01:16;;;;;;;;;;;12.70;99.90;;;;;;5093759;28;20335;-78
2021/10/30 06:03:42;;;;;;;;;;;12.70;99.90;;;;;;5109651;27;20462;-78
2021/10/30 06:06:08;;;;;;;;;;;12.60;99.90;;;;;;5084292;28;19908;-77
2021/10/30 06:08:34;;;;;;;;;;;12.50;99.90;;;;;;5076042;28;19912;-78
2021/10/30 06:11:00;;;;;;;;;;;12.50;99.90;;;;;;5089343;28;19958;-74
2021/10/30 06:13:25;;;;;;;;;;;12.40;99.90;;;;;;5066948;28;19942;-77
2021/10/30 06:15:51;;;;;;;;;;;12.40;99.90;;;;;;5092290;28;20015;-77
2021/10/30 06:18:16;;;;;;;;;;;12.50;99.90;;;;;;5091457;28;19912;-78
2021/10/30 06:20:42;;;;;;;;;;;12.50;99.90;;;;;;5070906;28;19919;-78
2021/10/30 06:23:08;;;;;;;;;;;12.50;99.90;;;;;;5054578;28;19909;-77
2021/10/30 06:25:33;;;;;;;;;;;12.50;99.90;;;;;;5047465;28;19913;-76
2021/10/30 06:27:59;;;;;;;;;;;12.50;99.90;;;;;;5039231;28;19910;-78
2021/10/30 06:30:24;;;;;;;;;;;12.60;99.90;;;;;;5043676;28;19964;-77
2021/10/30 06:32:51;;;;;;;;;;;12.60;99.90;;;;;;5058224;28;19913;-78
2021/10/30 06:35:17;;;;;;;;;;;12.50;99.90;;;;;;5030388;28;19962;-78
2021/10/30 06:37:43;;;;;;;;;;;12.50;99.90;;;;;;5055289;28;19908;-78
2021/10/30 06:40:10;;;;;;;;;;;12.50;99.90;;;;;;5047324;28;20565;-78
2021/10/30 06:42:36;;;;;;;;;;;12.40;99.90;;;;;;5054165;28;19908;-77
2021/10/30 06:45:01;;;;;;;;;;;12.30;99.90;;;;;;5051044;28;19920;-78
2021/10/30 06:47:27;;;;;;;;;;;12.40;99.90;;;;;;5060006;28;19920;-78
2021/10/30 06:49:55;;;;;;;;;;;12.30;99.90;;;;;;5045027;28;20336;-77
2021/10/30 06:52:22;;;;;;;;;;;12.30;99.90;;;;;;5039352;28;19917;-77
2021/10/30 06:54:47;;;;;;;;;;;12.20;99.90;;;;;;5062738;28;19915;-77
2021/10/30 06:57:13;;;;;;;;;;;12.20;99.90;;;;;;5103862;27;20455;-78
2021/10/30 06:59:39;;;;;;;;;;;12.10;99.90;;;;;;5093810;28;19912;-77
2021/10/30 07:02:04;;;;;;;;;;;12.00;99.90;;;;;;5088446;28;19922;-78
2021/10/30 07:04:32;;;;;;;;;;;11.90;99.90;;;;;;5074338;28;19961;-76
2021/10/30 07:06:58;;;;;;;;;;;11.90;99.90;;;;;;5089712;28;19919;-77
2021/10/30 07:09:23;;;;;;;;;;;11.80;99.90;;;;;;5071485;28;19916;-77
2021/10/30 07:11:49;;;;;;;;;;;11.80;99.90;;;;;;5086875;28;19922;-77
2021/10/30 07:14:15;;;;;;;;;;;11.80;99.90;;;;;;5060778;28;19920;-79
2021/10/30 07:16:40;;;;;;;;;;;11.80;99.90;;;;;;5094155;28;20340;-78
2021/10/30 07:19:05;;;;;;;;;;;11.60;99.90;;;;;;5061930;28;19947;-79
2021/10/30 07:21:31;;;;;;;;;;;11.60;99.90;;;;;;5083351;28;19961;-77
2021/10/30 07:24:00;;;;;;;;;;;11.60;99.90;;;;;;5093158;28;19908;-81
2021/10/30 07:26:25;;;;;;;;;;;11.50;99.90;;;;;;5068436;28;19912;-81
2021/10/30 07:28:51;;;;;;;;;;;11.60;99.90;;;;;;5108186;27;20371;-78
2021/10/30 07:31:16;;;;;;;;;;;11.60;99.90;;;;;;5105155;28;20350;-80
2021/10/30 07:33:42;;;;;;;;;;;11.70;99.90;;;;;;5088045;28;19908;-80
2021/10/30 07:36:08;;;;;;;;;;;11.60;99.90;;;;;;5088955;28;19940;-79
2021/10/30 07:38:33;;;;;;;;;;;11.60;99.90;;;;;;5093124;28;19937;-79
2021/10/30 07:40:59;;;;;;;;;;;11.60;99.90;;;;;;5092311;28;20026;-77
2021/10/30 07:43:24;;;;;;;;;;;11.60;99.90;;;;;;5079268;28;19942;-77
2021/10/30 07:45:50;;;;;;;;;;;11.60;99.90;;;;;;5099697;28;19916;-77
2021/10/30 07:48:16;;;;;;;;;;;11.60;99.90;;;;;;5106188;28;19920;-76
2021/10/30 07:50:41;;;;;;;;;;;11.60;99.90;;;;;;5108400;27;19964;-79
2021/10/30 07:53:07;;;;;;;;;;;11.70;99.90;;;;;;5077995;28;19939;-79
2021/10/30 07:55:32;;;;;;;;;;;11.60;99.90;;;;;;5098489;28;19908;-80
2021/10/30 07:57:59;;;;;;;;;;;11.70;99.90;;;;;;5081009;28;19912;-78
2021/10/30 08:00:25;;;;;;;;;;;11.60;99.90;;;;;;5096798;28;19919;-76
2021/10/30 08:02:50;;;;;;;;;;;11.70;99.90;;;;;;5098220;28;20315;-77
2021/10/30 08:05:16;;;;;;;;;;;11.70;99.90;;;;;;5110686;27;19958;-79
2021/10/30 08:07:43;;;;;;;;;;;11.80;99.90;;;;;;5102222;28;19908;-80
2021/10/30 08:10:09;;;;;;;;;;;11.90;99.90;;;;;;5097598;28;20325;-77
2021/10/30 08:12:35;;;;;;;;;;;11.90;99.90;;;;;;5102459;28;19937;-77
2021/10/30 08:15:01;;;;;;;;;;;11.90;99.90;;;;;;5112119;27;19913;-76
2021/10/30 08:17:26;;;;;;;;;;;11.90;99.90;;;;;;5087241;28;20603;-78
2021/10/30 08:19:52;;;;;;;;;;;11.90;99.90;;;;;;5074006;28;20387;-77
2021/10/30 08:22:17;;;;;;;;;;;11.90;99.90;;;;;;5078307;28;19923;-76
2021/10/30 08:24:45;;;;;;;;;;;12.00;99.90;;;;;;5092813;28;19915;-78
2021/10/30 08:27:11;;;;;;;;;;;12.00;99.90;;;;;;5082686;28;19923;-76
2021/10/30 08:29:37;;;;;;;;;;;12.10;99.90;;;;;;5082854;28;19919;-76
2021/10/30 08:32:03;;;;;;;;;;;12.10;99.90;;;;;;5086864;28;19927;-74
2021/10/30 08:34:28;;;;;;;;;;;12.10;99.90;;;;;;5068335;28;20046;-74
2021/10/30 08:36:54;;;;;;;;;;;12.20;99.90;;;;;;5089009;28;19916;-76
2021/10/30 08:39:20;;;;;;;;;;;12.20;99.90;;;;;;5090784;28;20002;-75
2021/10/30 08:41:45;;;;;;;;;;;12.30;99.90;;;;;;5085484;28;19935;-75
2021/10/30 08:44:11;;;;;;;;;;;12.30;99.90;;;;;;5076611;28;19916;-75
2021/10/30 08:46:37;;;;;;;;;;;12.30;99.90;;;;;;5085700;28;19920;-76
2021/10/30 08:49:03;;;;;;;;;;;12.30;99.90;;;;;;5084654;28;19920;-74
2021/10/30 08:51:32;;;;;;;;;;;12.40;99.90;;;;;;5082448;28;20440;-76
2021/10/30 08:53:57;;;;;;;;;;;12.50;99.90;;;;;;5067095;28;20380;-76
2021/10/30 08:56:23;;;;;;;;;;;12.50;99.90;;;;;;5085459;28;19927;-76
2021/10/30 08:58:48;;;;;;;;;;;12.50;99.90;;;;;;5085833;28;19912;-75
2021/10/30 09:01:14;;;;;;;;;;;12.50;99.90;;;;;;5080729;28;19928;-75
2021/10/30 09:03:41;;;;;;;;;;;12.50;99.90;;;;;;5066488;28;20372;-77
2021/10/30 09:06:06;;;;;;;;;;;12.50;99.90;;;;;;5067304;28;19912;-76
2021/10/30 09:08:33;;;;;;;;;;;12.50;99.90;;;;;;5061901;28;19916;-77
2021/10/30 09:11:09;;;;;;;;;;;12.60;99.90;;;;;;5077751;28;20432;-77
2021/10/30 09:13:36;;;;;;;;;;;12.60;99.90;;;;;;5110623;28;20598;-77
2021/10/30 09:16:02;;;;;;;;;;;12.60;99.90;;;;;;5074317;28;19956;-75
2021/10/30 09:18:31;;;;;;;;;;;12.70;99.90;;;;;;5085741;28;20295;-77
2021/10/30 09:21:02;;;;;;;;;;;12.80;99.90;;;;;;5086761;28;19916;-77
2021/10/30 09:23:29;;;;;;;;;;;12.80;99.90;;;;;;5093997;28;19923;-75
2021/10/30 09:25:58;;;;;;;;;;;12.90;99.90;;;;;;5090824;28;19916;-76
2021/10/30 09:28:24;;;;;;;;;;;13.00;99.90;;;;;;5076525;28;20370;-77
2021/10/30 09:31:00;;;;;;;;;;;13.10;99.90;;;;;;5074052;28;19923;-77
2021/10/30 09:33:30;;;;;;;;;;;13.30;99.90;;;;;;5067076;28;20298;-77
2021/10/30 09:35:57;;;;;;;;;;;13.40;99.90;;;;;;5068733;28;19965;-76
2021/10/30 09:38:36;;;;;;;;;;;13.60;99.90;;;;;;5079318;28;20012;-76
2021/10/30 09:41:19;;;;;;;;;;;13.60;99.90;;;;;;5087733;28;19919;-77
2021/10/30 09:43:58;;;;;;;;;;;13.70;99.90;;;;;;5088204;28;19916;-76
2021/10/30 09:46:24;;;;;;;;;;;13.80;99.90;;;;;;5082924;28;19986;-77
2021/10/30 09:48:50;;;;;;;;;;;14.00;99.90;;;;;;5088714;28;19934;-77
2021/10/30 09:51:30;;;;;;;;;;;13.90;99.90;;;;;;5105486;27;20372;-77
2021/10/30 09:53:56;;;;;;;;;;;14.00;99.90;;;;;;5085465;28;20004;-77
2021/10/30 09:56:21;;;;;;;;;;;14.10;99.90;;;;;;5086589;28;20690;-77
2021/10/30 09:58:47;;;;;;;;;;;14.30;99.90;;;;;;5088080;28;20018;-76
2021/10/30 10:01:12;;;;;;;;;;;14.30;99.90;;;;;;5084367;28;20492;-77
2021/10/30 10:03:42;;;;;;;;;;;14.30;99.90;;;;;;5098924;28;19916;-79
2021/10/30 10:06:11;;;;;;;;;;;14.30;99.90;;;;;;5086915;28;20597;-77
2021/10/30 10:08:38;;;;;;;;;;;14.30;99.90;;;;;;5085332;28;19939;-78
2021/10/30 10:11:08;;;;;;;;;;;14.30;99.90;;;;;;5082827;28;20372;-78
2021/10/30 10:13:35;;;;;;;;;;;14.30;99.90;;;;;;5070871;28;20112;-79
2021/10/30 10:16:01;;;;;;;;;;;14.30;99.90;;;;;;5080949;28;19916;-78
2021/10/30 10:18:26;;;;;;;;;;;14.30;99.90;;;;;;5053177;28;19912;-77
2021/10/30 10:20:52;;;;;;;;;;;14.30;99.90;;;;;;5085252;28;19912;-79
2021/10/30 10:23:19;;;;;;;;;;;14.40;99.90;;;;;;5087520;28;20364;-77
2021/10/30 10:25:49;;;;;;;;;;;14.40;99.90;;;;;;5103826;27;20570;-78
2021/10/30 10:28:17;;;;;;;;;;;14.40;99.90;;;;;;5080113;28;20364;-77
2021/10/30 10:30:56;;;;;;;;;;;14.50;99.90;;;;;;5088039;28;19916;-77
2021/10/30 10:33:22;;;;;;;;;;;14.50;99.90;;;;;;5080953;28;19912;-79
2021/10/30 10:36:06;;;;;;;;;;;14.60;99.90;;;;;;5083637;28;20454;-79
2021/10/30 10:38:50;;;;;;;;;;;14.40;99.90;;;;;;5081817;28;20466;-78
2021/10/30 10:41:34;;;;;;;;;;;14.40;99.90;;;;;;5082616;28;20410;-78
2021/10/30 10:44:00;;;;;;;;;;;14.40;99.90;;;;;;5085504;28;20423;-79
2021/10/30 10:46:26;;;;;;;;;;;14.50;99.90;;;;;;5083144;28;19920;-77
2021/10/30 10:48:51;;;;;;;;;;;14.60;99.90;;;;;;5067856;28;19951;-77
2021/10/30 10:51:23;;;;;;;;;;;14.60;99.90;;;;;;5096424;28;20018;-77
2021/10/30 10:54:06;;;;;;;;;;;14.60;99.90;;;;;;5076029;28;19999;-76
2021/10/30 10:56:32;;;;;;;;;;;14.60;99.90;;;;;;5083047;28;19912;-77
2021/10/30 10:59:01;;;;;;;;;;;14.50;99.90;;;;;;5082845;28;19924;-79
2021/10/30 11:01:27;;;;;;;;;;;14.50;99.90;;;;;;5067734;28;20352;-77
2021/10/30 11:04:08;;;;;;;;;;;14.30;99.90;;;;;;5057704;28;20022;-77
2021/10/30 11:06:37;;;;;;;;;;;14.10;99.90;;;;;;5083173;28;20384;-77
2021/10/30 11:09:13;;;;;;;;;;;13.90;99.90;;;;;;5083494;28;19965;-77
2021/10/30 11:11:38;;;;;;;;;;;13.70;99.90;;;;;;5083712;28;19918;-78
2021/10/30 11:14:05;;;;;;;;;;;13.50;99.90;;;;;;5050742;28;19921;-75
2021/10/30 11:16:38;;;;;;;;;;;13.40;99.90;;;;;;5082602;28;20681;-75
2021/10/30 11:19:08;;;;;;;;;;;13.30;99.90;;;;;;5081905;28;19912;-77
2021/10/30 11:21:41;;;;;;;;;;;13.20;99.90;;;;;;5080085;28;20401;-76
2021/10/30 11:24:16;;;;;;;;;;;13.10;99.90;;;;;;5081319;28;20275;-79
2021/10/30 11:26:41;;;;;;;;;;;13.10;99.90;;;;;;5058750;28;19916;-78
2021/10/30 11:29:07;;;;;;;;;;;13.00;99.90;;;;;;5083028;28;20411;-75
2021/10/30 11:31:33;;;;;;;;;;;13.00;99.90;;;;;;5078769;28;20385;-77
2021/10/30 11:34:00;;;;;;;;;;;13.00;99.90;;;;;;5084292;28;19916;-75
2021/10/30 11:36:26;;;;;;;;;;;13.00;99.90;;;;;;5061317;28;20364;-76
2021/10/30 11:38:53;;;;;;;;;;;13.10;99.90;;;;;;5060356;28;20446;-77
2021/10/30 11:41:20;;;;;;;;;;;13.10;99.90;;;;;;5081814;28;19920;-76
2021/10/30 11:43:48;;;;;;;;;;;13.20;99.90;;;;;;5085578;28;19916;-79
2021/10/30 11:46:15;;;;;;;;;;;13.30;99.90;;;;;;5083900;28;19920;-80
2021/10/30 11:48:42;;;;;;;;;;;13.40;99.90;;;;;;5083636;28;20362;-76
2021/10/30 11:51:08;;;;;;;;;;;13.50;99.90;;;;;;5080227;28;20372;-72
2021/10/30 11:53:35;;;;;;;;;;;13.60;99.90;;;;;;5065790;28;19916;-74
2021/10/30 11:56:05;;;;;;;;;;;13.70;99.90;;;;;;5081255;28;19923;-75
2021/10/30 11:58:53;;;;;;;;;;;13.80;99.90;;;;;;5083971;28;19947;-79
2021/10/30 12:01:28;;;;;;;;;;;13.80;99.90;;;;;;5081389;28;20284;-78
2021/10/30 12:04:13;;;;;;;;;;;13.90;99.90;;;;;;5080830;28;19922;-79
2021/10/30 12:06:40;;;;;;;;;;;14.00;99.90;;;;;;5105341;27;20299;-74
2021/10/30 12:09:19;;;;;;;;;;;14.00;99.90;;;;;;5085237;28;19916;-78
2021/10/30 12:11:45;;;;;;;;;;;14.00;99.90;;;;;;5080887;28;20383;-83
2021/10/30 12:14:11;;;;;;;;;;;14.10;99.90;;;;;;5082989;28;19961;-81
2021/10/30 12:16:37;;;;;;;;;;;14.10;99.90;;;;;;5089725;28;19915;-74
2021/10/30 12:19:03;;;;;;;;;;;14.10;99.90;;;;;;5084236;28;19916;-79
2021/10/30 12:21:33;;;;;;;;;;;14.20;99.90;;;;;;5081836;28;19969;-82
2021/10/30 12:24:03;;;;;;;;;;;14.20;99.90;;;;;;5088493;28;20006;-81
2021/10/30 12:26:29;;;;;;;;;;;14.10;99.90;;;;;;5087206;28;20031;-83
2021/10/30 12:29:10;;;;;;;;;;;14.10;99.90;;;;;;5085086;28;20002;-85
2021/10/30 12:31:36;;;;;;;;;;;14.10;99.90;;;;;;5085380;28;19927;-85
2021/10/30 12:34:02;;;;;;;;;;;14.00;99.90;;;;;;5085771;28;19938;-80
2021/10/30 12:36:28;;;;;;;;;;;13.90;99.90;;;;;;5085789;28;19947;-81
2021/10/30 12:38:56;;;;;;;;;;;14.00;99.90;;;;;;5084370;28;20031;-82
2021/10/30 12:41:28;;;;;;;;;;;14.10;99.90;;;;;;5085788;28;19923;-79
2021/10/30 12:43:57;;;;;;;;;;;14.10;99.90;;;;;;5066138;28;19984;-79
2021/10/30 12:46:22;;;;;;;;;;;14.10;99.90;;;;;;5086305;28;19937;-78
2021/10/30 12:48:48;;;;;;;;;;;13.90;99.90;;;;;;5110554;27;20554;-83
2021/10/30 12:51:16;;;;;;;;;;;14.00;99.90;;;;;;5097927;28;19920;-80
2021/10/30 12:53:42;;;;;;;;;;;14.00;99.90;;;;;;5092528;28;19922;-83
2021/10/30 12:56:07;;;;;;;;;;;13.90;99.90;;;;;;5104548;27;20482;-79
2021/10/30 12:58:34;;;;;;;;;;;13.90;99.90;;;;;;5083048;28;19986;-82
2021/10/30 13:00:59;;;;;;;;;;;13.90;99.90;;;;;;5072797;28;19931;-81
2021/10/30 13:03:29;;;;;;;;;;;13.80;99.90;;;;;;5096298;28;20337;-81
2021/10/30 13:05:55;;;;;;;;;;;13.80;99.90;;;;;;5091803;28;20117;-82
2021/10/30 13:08:21;;;;;;;;;;;13.80;99.90;;;;;;5077112;28;19922;-81
2021/10/30 13:10:47;;;;;;;;;;;13.80;99.90;;;;;;5099361;27;19924;-81
2021/10/30 13:13:13;;;;;;;;;;;13.80;99.90;;;;;;5097672;28;20434;-82
2021/10/30 13:15:38;;;;;;;;;;;13.70;99.90;;;;;;5109711;28;19915;-82
2021/10/30 13:18:04;;;;;;;;;;;13.70;99.90;;;;;;5113392;28;19916;-82
2021/10/30 13:20:30;;;;;;;;;;;13.70;99.90;;;;;;5088861;28;19916;-80
2021/10/30 13:22:56;;;;;;;;;;;13.70;99.90;;;;;;5095209;28;19923;-81
2021/10/30 13:25:21;;;;;;;;;;;13.70;99.90;;;;;;5062145;28;19916;-80
2021/10/30 13:27:47;;;;;;;;;;;13.70;99.90;;;;;;5092360;28;19923;-79
2021/10/30 13:30:12;;;;;;;;;;;13.80;99.90;;;;;;5060767;28;19932;-74
2021/10/30 13:32:39;;;;;;;;;;;13.90;99.90;;;;;;5111368;28;19922;-79
2021/10/30 13:35:05;;;;;;;;;;;13.90;99.90;;;;;;5090986;28;19922;-78
2021/10/30 13:37:30;;;;;;;;;;;14.00;99.90;;;;;;5089743;28;19915;-76
2021/10/30 13:39:56;;;;;;;;;;;14.00;99.90;;;;;;5092687;28;19923;-76
2021/10/30 13:42:21;;;;;;;;;;;13.90;99.90;;;;;;5065121;28;19920;-80
2021/10/30 13:44:47;;;;;;;;;;;14.00;99.90;;;;;;5083865;28;19912;-78
2021/10/30 13:47:13;;;;;;;;;;;14.00;99.90;;;;;;5090043;28;20297;-82
2021/10/30 13:49:38;;;;;;;;;;;14.10;99.90;;;;;;5095809;28;19935;-77
2021/10/30 13:52:05;;;;;;;;;;;14.20;99.90;;;;;;5111661;28;20045;-82
2021/10/30 13:54:31;;;;;;;;;;;14.30;99.90;;;;;;5089651;28;20678;-82
2021/10/30 13:56:56;;;;;;;;;;;14.40;99.90;;;;;;5078461;28;19956;-79
2021/10/30 13:59:22;;;;;;;;;;;14.40;99.90;;;;;;5097398;28;19920;-83
2021/10/30 14:01:47;;;;;;;;;;;14.40;99.90;;;;;;5104995;28;19963;-76
2021/10/30 14:04:13;;;;;;;;;;;14.50;99.90;;;;;;5091905;28;19916;-82
2021/10/30 14:06:39;;;;;;;;;;;14.70;99.90;;;;;;5098558;28;19968;-81
2021/10/30 14:09:04;;;;;;;;;;;14.70;99.90;;;;;;5085540;28;19916;-82
2021/10/30 14:11:32;;;;;;;;;;;14.70;99.90;;;;;;5090362;28;19970;-82
2021/10/30 14:13:57;;;;;;;;;;;14.70;99.90;;;;;;5092505;28;19956;-82